Time;durP1;ratioP1;P1;durP2;ratioP2;P2;SDS_P1;SDS_P2;PMS_P1;PMS_P2;Temp;Humidity;BMP_temperature;BMP_pressure;BME280_temperature;BME280_humidity;BME280_pressure;Samples;Min_cycle;Max_cycle;Signal;HPM_P1;HPM_P2
2021/06/06 00:01:55;;;;;;;15.33;13.73;;;;;;;;;;5045541;28;20705;-60
2021/06/06 00:04:23;;;;;;;14.00;12.60;;;;;;;;;;5031342;28;20661;-59
2021/06/06 00:06:49;;;;;;;14.47;13.07;;;;;;;;;;5035830;28;20632;-62
2021/06/06 00:09:16;;;;;;;13.27;11.87;;;;;;;;;;5041182;28;20200;-59
2021/06/06 00:12:01;;;;;;;14.10;12.70;;;;;;;;;;5033417;28;20350;-63
2021/06/06 00:14:29;;;;;;;13.30;11.90;;;;;;;;;;5047811;28;21060;-61
2021/06/06 00:16:56;;;;;;;14.87;12.77;;;;;;;;;;5025725;28;20642;-59
2021/06/06 00:19:23;;;;;;;13.00;11.70;;;;;;;;;;5052041;28;20189;-60
2021/06/06 00:21:50;;;;;;;13.87;12.47;;;;;;;;;;5047877;28;20263;-59
2021/06/06 00:24:17;;;;;;;14.10;12.53;;;;;;;;;;5031258;28;20272;-60
2021/06/06 00:26:43;;;;;;;12.93;11.57;;;;;;;;;;5053014;28;20181;-62
2021/06/06 00:29:09;;;;;;;13.70;12.37;;;;;;;;;;5058780;28;20483;-62
2021/06/06 00:31:36;;;;;;;14.23;12.83;;;;;;;;;;5054818;28;20205;-62
2021/06/06 00:34:03;;;;;;;13.57;12.13;;;;;;;;;;5048523;28;20594;-62
2021/06/06 00:36:29;;;;;;;13.40;12.00;;;;;;;;;;5051753;28;20177;-60
2021/06/06 00:38:55;;;;;;;12.97;11.63;;;;;;;;;;5052540;28;20639;-59
2021/06/06 00:41:22;;;;;;;12.50;11.30;;;;;;;;;;5037277;28;20185;-63
2021/06/06 00:43:48;;;;;;;13.07;11.77;;;;;;;;;;5037556;28;20671;-60
2021/06/06 00:46:16;;;;;;;12.57;11.33;;;;;;;;;;5051859;28;20568;-60
2021/06/06 00:48:42;;;;;;;12.33;11.03;;;;;;;;;;5035075;28;20192;-60
2021/06/06 00:51:14;;;;;;;12.60;11.30;;;;;;;;;;5052884;28;20177;-61
2021/06/06 00:53:42;;;;;;;11.57;10.37;;;;;;;;;;5047280;28;20189;-60
2021/06/06 00:56:10;;;;;;;12.37;11.20;;;;;;;;;;5052781;28;20187;-60
2021/06/06 00:58:36;;;;;;;13.13;11.73;;;;;;;;;;5050624;28;20182;-60
2021/06/06 01:01:04;;;;;;;12.03;10.80;;;;;;;;;;5050799;28;20191;-60
2021/06/06 01:03:30;;;;;;;13.07;11.67;;;;;;;;;;5055140;28;20211;-60
2021/06/06 01:05:59;;;;;;;12.13;10.97;;;;;;;;;;5051913;28;20590;-60
2021/06/06 01:08:27;;;;;;;11.70;10.50;;;;;;;;;;5052134;28;20623;-60
2021/06/06 01:11:01;;;;;;;11.90;10.63;;;;;;;;;;5050046;28;21153;-60
2021/06/06 01:13:35;;;;;;;10.63;9.73;;;;;;;;;;5050539;28;20220;-60
2021/06/06 01:16:03;;;;;;;10.67;9.67;;;;;;;;;;5046275;28;20713;-60
2021/06/06 01:18:31;;;;;;;11.53;10.43;;;;;;;;;;5037802;28;20660;-60
2021/06/06 01:21:19;;;;;;;12.40;11.20;;;;;;;;;;5032449;28;20437;-62
2021/06/06 01:23:58;;;;;;;12.57;10.93;;;;;;;;;;5055606;28;20194;-63
2021/06/06 01:26:33;;;;;;;13.10;11.50;;;;;;;;;;5044365;28;20188;-63
2021/06/06 01:29:22;;;;;;;14.60;12.33;;;;;;;;;;5057431;28;20354;-63
2021/06/06 01:31:51;;;;;;;12.17;10.97;;;;;;;;;;5023200;28;20745;-62
2021/06/06 01:34:27;;;;;;;12.20;10.87;;;;;;;;;;5035290;28;20177;-63
2021/06/06 01:37:02;;;;;;;12.17;10.93;;;;;;;;;;5044080;28;20589;-64
2021/06/06 01:39:34;;;;;;;13.03;11.47;;;;;;;;;;5047758;28;20192;-60
2021/06/06 01:42:06;;;;;;;11.60;10.17;;;;;;;;;;5053121;28;20185;-60
2021/06/06 01:44:34;;;;;;;10.70;9.60;;;;;;;;;;5033991;28;20656;-60
2021/06/06 01:47:08;;;;;;;10.03;9.00;;;;;;;;;;5046021;28;20583;-63
2021/06/06 01:49:35;;;;;;;12.87;10.13;;;;;;;;;;5050677;28;20192;-65
2021/06/06 01:52:03;;;;;;;11.93;10.37;;;;;;;;;;5049297;28;20214;-63
2021/06/06 01:54:30;;;;;;;11.70;10.55;;;;;;;;;;5058798;28;20411;-62
2021/06/06 01:56:57;;;;;;;9.90;8.87;;;;;;;;;;5054314;28;20185;-62
2021/06/06 01:59:25;;;;;;;9.80;8.90;;;;;;;;;;5056403;28;20185;-62
2021/06/06 02:01:52;;;;;;;9.23;8.43;;;;;;;;;;5027319;28;20208;-62
2021/06/06 02:04:18;;;;;;;9.97;8.97;;;;;;;;;;5033391;28;20193;-62
2021/06/06 02:06:54;;;;;;;9.10;8.30;;;;;;;;;;5038057;28;20258;-63
2021/06/06 02:09:25;;;;;;;10.77;9.77;;;;;;;;;;5041749;28;20190;-63
2021/06/06 02:11:56;;;;;;;9.37;8.57;;;;;;;;;;5048318;28;20184;-62
2021/06/06 02:14:23;;;;;;;9.33;8.53;;;;;;;;;;5032006;28;20229;-59
2021/06/06 02:16:53;;;;;;;9.57;8.67;;;;;;;;;;5047102;28;20189;-61
2021/06/06 02:19:19;;;;;;;10.10;9.20;;;;;;;;;;5047611;28;20640;-60
2021/06/06 02:21:45;;;;;;;9.00;8.20;;;;;;;;;;5045669;28;20196;-59
2021/06/06 02:24:11;;;;;;;8.87;7.93;;;;;;;;;;5050181;28;20216;-59
2021/06/06 02:26:43;;;;;;;9.90;8.90;;;;;;;;;;5049683;28;20188;-59
2021/06/06 02:29:21;;;;;;;9.47;8.47;;;;;;;;;;5052275;28;20177;-60
2021/06/06 02:31:53;;;;;;;9.13;8.33;;;;;;;;;;5047573;28;20248;-59
2021/06/06 02:34:34;;;;;;;10.17;9.27;;;;;;;;;;5049923;28;20205;-59
2021/06/06 02:37:03;;;;;;;8.37;7.47;;;;;;;;;;5048347;28;20181;-60
2021/06/06 02:39:34;;;;;;;10.13;9.10;;;;;;;;;;5042316;28;20674;-59
2021/06/06 02:42:12;;;;;;;10.03;9.03;;;;;;;;;;5050051;28;20548;-61
2021/06/06 02:44:50;;;;;;;9.63;8.63;;;;;;;;;;5028486;28;20613;-59
2021/06/06 02:47:24;;;;;;;9.10;8.20;;;;;;;;;;5046336;28;20180;-62
2021/06/06 02:49:51;;;;;;;9.90;8.90;;;;;;;;;;5029398;28;20181;-60
2021/06/06 02:52:20;;;;;;;9.17;8.43;;;;;;;;;;5033219;28;20231;-59
2021/06/06 02:55:06;;;;;;;9.97;8.87;;;;;;;;;;5051410;28;20510;-59
2021/06/06 02:57:33;;;;;;;11.07;10.03;;;;;;;;;;5049337;28;20184;-60
2021/06/06 03:00:05;;;;;;;9.73;8.73;;;;;;;;;;5048919;28;20177;-60
2021/06/06 03:02:36;;;;;;;10.53;9.53;;;;;;;;;;5022687;28;20217;-60
2021/06/06 03:05:04;;;;;;;11.00;9.90;;;;;;;;;;5041995;28;20177;-59
2021/06/06 03:07:33;;;;;;;10.97;9.87;;;;;;;;;;5048952;28;20177;-59
2021/06/06 03:09:59;;;;;;;10.40;9.30;;;;;;;;;;5028759;28;20232;-59
2021/06/06 03:12:26;;;;;;;10.50;9.47;;;;;;;;;;5049813;28;20209;-61
2021/06/06 03:14:52;;;;;;;10.07;9.13;;;;;;;;;;5049729;28;20181;-60
2021/06/06 03:17:24;;;;;;;9.47;8.47;;;;;;;;;;5048229;28;20644;-59
2021/06/06 03:19:52;;;;;;;9.97;8.97;;;;;;;;;;5028572;28;20194;-59
2021/06/06 03:22:20;;;;;;;11.13;10.00;;;;;;;;;;5042137;28;20729;-59
2021/06/06 03:24:51;;;;;;;10.37;9.37;;;;;;;;;;5049661;28;20181;-60
2021/06/06 03:27:19;;;;;;;10.77;9.77;;;;;;;;;;5048405;28;20184;-60
2021/06/06 03:29:54;;;;;;;10.17;8.93;;;;;;;;;;5049645;28;20233;-59
2021/06/06 03:32:24;;;;;;;10.53;9.43;;;;;;;;;;5048476;28;20180;-60
2021/06/06 03:34:50;;;;;;;9.87;8.90;;;;;;;;;;5031659;28;20651;-59
2021/06/06 03:37:17;;;;;;;10.13;9.13;;;;;;;;;;5028449;28;20186;-59
2021/06/06 03:39:43;;;;;;;10.50;9.40;;;;;;;;;;5044386;28;20716;-62
2021/06/06 03:42:09;;;;;;;11.10;10.03;;;;;;;;;;5046299;28;20216;-60
2021/06/06 03:44:35;;;;;;;10.97;9.87;;;;;;;;;;5049372;28;20184;-60
2021/06/06 03:47:01;;;;;;;10.27;9.10;;;;;;;;;;5047142;28;20173;-60
2021/06/06 03:49:27;;;;;;;9.97;9.07;;;;;;;;;;5048369;28;20268;-59
2021/06/06 03:51:54;;;;;;;11.98;10.82;;;;;;;;;;5047753;28;20756;-60
2021/06/06 03:54:20;;;;;;;11.77;10.50;;;;;;;;;;5049607;28;20169;-60
2021/06/06 03:56:48;;;;;;;20.77;11.87;;;;;;;;;;5031287;28;20670;-60
2021/06/06 03:59:14;;;;;;;11.37;9.70;;;;;;;;;;5040419;28;20232;-59
2021/06/06 04:01:41;;;;;;;11.10;9.97;;;;;;;;;;5025049;28;20517;-59
2021/06/06 04:04:07;;;;;;;14.13;10.30;;;;;;;;;;5047429;28;20205;-60
2021/06/06 04:06:33;;;;;;;12.47;9.90;;;;;;;;;;5050637;28;20644;-60
2021/06/06 04:09:01;;;;;;;11.30;10.30;;;;;;;;;;5032679;28;20189;-59
2021/06/06 04:11:27;;;;;;;11.83;10.63;;;;;;;;;;5034273;28;20179;-60
2021/06/06 04:13:54;;;;;;;12.00;10.80;;;;;;;;;;5038830;28;20332;-60
2021/06/06 04:16:20;;;;;;;11.80;10.60;;;;;;;;;;5024327;28;20189;-60
2021/06/06 04:18:46;;;;;;;10.93;9.83;;;;;;;;;;5050195;28;20234;-59
2021/06/06 04:21:14;;;;;;;11.87;10.77;;;;;;;;;;5047898;28;20189;-61
2021/06/06 04:23:40;;;;;;;12.82;11.70;;;;;;;;;;5048572;28;20440;-59
2021/06/06 04:26:06;;;;;;;11.73;10.53;;;;;;;;;;5048853;28;20224;-61
2021/06/06 04:28:33;;;;;;;12.07;10.87;;;;;;;;;;5049053;28;20592;-59
2021/06/06 04:30:59;;;;;;;11.27;10.10;;;;;;;;;;5028264;28;20201;-59
2021/06/06 04:33:25;;;;;;;12.93;11.63;;;;;;;;;;5049284;28;20184;-60
2021/06/06 04:35:51;;;;;;;13.67;12.33;;;;;;;;;;5048801;28;20186;-59
2021/06/06 04:38:20;;;;;;;13.73;12.30;;;;;;;;;;5042099;28;20224;-60
2021/06/06 04:40:46;;;;;;;13.67;12.27;;;;;;;;;;5048447;28;20562;-61
2021/06/06 04:43:12;;;;;;;13.90;12.47;;;;;;;;;;5048033;28;20232;-61
2021/06/06 04:45:39;;;;;;;14.40;13.00;;;;;;;;;;5045832;28;20682;-62
2021/06/06 04:48:12;;;;;;;14.00;12.53;;;;;;;;;;5047694;28;20174;-61
2021/06/06 04:50:38;;;;;;;14.90;12.73;;;;;;;;;;5027571;28;20580;-60
2021/06/06 04:53:04;;;;;;;14.77;13.20;;;;;;;;;;5008547;28;20186;-59
2021/06/06 04:55:30;;;;;;;14.33;12.83;;;;;;;;;;5041257;28;20631;-59
2021/06/06 04:57:56;;;;;;;13.90;12.43;;;;;;;;;;5044637;28;20185;-59
2021/06/06 05:00:25;;;;;;;13.97;12.20;;;;;;;;;;5050566;28;20188;-63
2021/06/06 05:02:52;;;;;;;13.93;12.50;;;;;;;;;;5047485;28;20238;-59
2021/06/06 05:05:18;;;;;;;16.10;14.37;;;;;;;;;;5046084;28;20620;-61
2021/06/06 05:07:55;;;;;;;17.80;16.00;;;;;;;;;;5037890;28;20272;-60
2021/06/06 05:10:22;;;;;;;16.23;14.50;;;;;;;;;;5033508;28;20528;-60
2021/06/06 05:12:48;;;;;;;16.13;13.83;;;;;;;;;;5029459;28;20753;-61
2021/06/06 05:15:15;;;;;;;16.33;14.63;;;;;;;;;;5046365;28;20345;-60
2021/06/06 05:17:41;;;;;;;15.87;14.20;;;;;;;;;;5044010;28;20185;-60
2021/06/06 05:20:08;;;;;;;18.10;15.53;;;;;;;;;;5047909;28;20184;-60
2021/06/06 05:22:34;;;;;;;18.03;15.63;;;;;;;;;;5048709;28;20220;-61
2021/06/06 05:25:00;;;;;;;17.23;15.00;;;;;;;;;;5045224;28;20238;-61
2021/06/06 05:27:26;;;;;;;18.37;15.93;;;;;;;;;;5049031;28;20615;-61
2021/06/06 05:29:52;;;;;;;19.63;15.50;;;;;;;;;;5048489;28;20634;-63
2021/06/06 05:32:18;;;;;;;19.03;17.03;;;;;;;;;;5026527;28;20597;-62
2021/06/06 05:34:44;;;;;;;17.67;15.53;;;;;;;;;;5047594;28;20208;-60
2021/06/06 05:37:12;;;;;;;18.03;15.60;;;;;;;;;;5050747;28;20231;-60
2021/06/06 05:39:39;;;;;;;18.50;16.20;;;;;;;;;;5044016;28;20702;-63
2021/06/06 05:42:05;;;;;;;18.60;15.37;;;;;;;;;;5051176;28;20181;-61
2021/06/06 05:44:31;;;;;;;18.43;16.43;;;;;;;;;;5034240;28;20178;-61
2021/06/06 05:46:57;;;;;;;18.83;16.17;;;;;;;;;;5032753;28;20169;-60
2021/06/06 05:49:23;;;;;;;18.97;16.63;;;;;;;;;;5033271;28;20169;-60
2021/06/06 05:51:49;;;;;;;19.27;14.90;;;;;;;;;;5033595;28;20272;-62
2021/06/06 05:54:15;;;;;;;20.30;16.07;;;;;;;;;;5051223;28;21743;-61
2021/06/06 05:56:43;;;;;;;19.87;16.47;;;;;;;;;;5050688;28;20181;-60
2021/06/06 05:59:09;;;;;;;22.33;17.57;;;;;;;;;;5046745;28;20196;-61
2021/06/06 06:01:35;;;;;;;18.80;16.80;;;;;;;;;;5049297;28;20201;-61
2021/06/06 06:04:01;;;;;;;19.00;16.13;;;;;;;;;;5051737;28;20220;-60
2021/06/06 06:06:27;;;;;;;21.87;16.97;;;;;;;;;;5051023;28;20634;-60
2021/06/06 06:08:54;;;;;;;17.13;15.37;;;;;;;;;;5053269;28;20504;-60
2021/06/06 06:11:21;;;;;;;18.33;16.40;;;;;;;;;;5050048;28;20201;-60
2021/06/06 06:13:47;;;;;;;17.47;15.40;;;;;;;;;;5026570;28;20208;-60
2021/06/06 06:16:15;;;;;;;20.93;16.03;;;;;;;;;;5031981;28;20173;-60
2021/06/06 06:18:42;;;;;;;18.80;15.90;;;;;;;;;;5050418;28;20185;-60
2021/06/06 06:21:09;;;;;;;20.70;16.80;;;;;;;;;;5047344;28;20185;-61
2021/06/06 06:23:36;;;;;;;18.63;16.57;;;;;;;;;;5051239;28;20208;-60
2021/06/06 06:26:02;;;;;;;24.50;18.60;;;;;;;;;;5051170;28;20173;-60
2021/06/06 06:28:28;;;;;;;20.90;17.97;;;;;;;;;;5051386;28;20172;-60
2021/06/06 06:30:54;;;;;;;21.40;16.53;;;;;;;;;;5046065;28;20186;-60
2021/06/06 06:33:20;;;;;;;22.07;17.47;;;;;;;;;;5048306;28;20188;-60
2021/06/06 06:35:46;;;;;;;21.27;17.77;;;;;;;;;;5050236;28;20632;-60
2021/06/06 06:38:12;;;;;;;20.57;16.47;;;;;;;;;;5051241;28;20181;-60
2021/06/06 06:40:39;;;;;;;19.67;16.10;;;;;;;;;;5052928;28;20185;-60
2021/06/06 06:43:06;;;;;;;19.60;16.47;;;;;;;;;;5049480;28;20201;-62
2021/06/06 06:45:34;;;;;;;21.07;16.90;;;;;;;;;;5051018;28;20208;-61
2021/06/06 06:48:10;;;;;;;21.50;17.10;;;;;;;;;;5048731;28;20190;-62
2021/06/06 06:50:36;;;;;;;19.57;15.53;;;;;;;;;;5033712;28;20549;-60
2021/06/06 06:53:02;;;;;;;18.10;15.73;;;;;;;;;;5050413;28;20272;-60
2021/06/06 06:55:29;;;;;;;19.20;15.27;;;;;;;;;;5051158;28;20186;-60
2021/06/06 06:57:56;;;;;;;18.13;16.10;;;;;;;;;;5049290;28;20909;-60
2021/06/06 07:00:25;;;;;;;14.90;13.43;;;;;;;;;;5050017;28;20200;-60
2021/06/06 07:02:51;;;;;;;16.43;13.93;;;;;;;;;;5031571;28;20205;-60
2021/06/06 07:05:17;;;;;;;17.83;14.43;;;;;;;;;;5031662;28;20180;-60
2021/06/06 07:07:43;;;;;;;16.53;14.83;;;;;;;;;;5031576;28;20770;-61
2021/06/06 07:10:10;;;;;;;18.53;15.97;;;;;;;;;;5049171;28;20190;-61
2021/06/06 07:12:37;;;;;;;16.63;14.90;;;;;;;;;;5048458;28;20216;-60
2021/06/06 07:15:05;;;;;;;19.07;16.53;;;;;;;;;;5047090;28;20195;-63
2021/06/06 07:17:31;;;;;;;19.20;16.43;;;;;;;;;;5048201;28;20185;-62
2021/06/06 07:19:57;;;;;;;23.57;17.43;;;;;;;;;;5047851;28;20181;-60
2021/06/06 07:22:23;;;;;;;18.20;15.33;;;;;;;;;;5047186;28;20205;-62
2021/06/06 07:24:49;;;;;;;23.27;16.87;;;;;;;;;;5030811;28;20539;-60
2021/06/06 07:27:15;;;;;;;18.80;16.73;;;;;;;;;;5033826;28;20188;-61
2021/06/06 07:29:41;;;;;;;19.57;17.03;;;;;;;;;;5048408;28;20608;-60
2021/06/06 07:32:07;;;;;;;20.03;17.27;;;;;;;;;;5045361;28;20269;-61
2021/06/06 07:34:33;;;;;;;20.53;16.73;;;;;;;;;;5050835;28;20401;-61
2021/06/06 07:37:01;;;;;;;20.83;17.20;;;;;;;;;;5049105;28;22247;-61
2021/06/06 07:39:27;;;;;;;23.23;16.60;;;;;;;;;;5031331;28;20204;-61
2021/06/06 07:41:54;;;;;;;21.80;16.63;;;;;;;;;;5047466;28;20180;-60
2021/06/06 07:44:21;;;;;;;22.27;17.20;;;;;;;;;;5029368;28;20248;-60
2021/06/06 07:46:47;;;;;;;26.07;17.67;;;;;;;;;;5046755;28;20278;-60
2021/06/06 07:49:13;;;;;;;25.03;18.20;;;;;;;;;;5053506;28;20281;-61
2021/06/06 07:51:39;;;;;;;23.23;18.37;;;;;;;;;;5048177;28;20177;-60
2021/06/06 07:54:05;;;;;;;21.57;17.10;;;;;;;;;;5031725;28;20686;-62
2021/06/06 07:56:31;;;;;;;21.73;16.83;;;;;;;;;;5031323;28;20643;-61
2021/06/06 07:58:57;;;;;;;24.97;19.37;;;;;;;;;;5049733;28;20351;-60
2021/06/06 08:01:23;;;;;;;22.70;17.83;;;;;;;;;;5048368;28;20232;-60
2021/06/06 08:03:50;;;;;;;25.50;19.00;;;;;;;;;;5017972;28;20225;-61
2021/06/06 08:06:16;;;;;;;20.20;16.33;;;;;;;;;;5052334;28;20198;-61
2021/06/06 08:08:42;;;;;;;22.40;16.43;;;;;;;;;;5049349;28;20259;-61
2021/06/06 08:11:09;;;;;;;23.90;18.27;;;;;;;;;;5046042;28;20236;-60
2021/06/06 08:13:35;;;;;;;23.00;18.67;;;;;;;;;;5049508;28;20694;-61
2021/06/06 08:16:01;;;;;;;24.00;18.87;;;;;;;;;;5048290;28;20203;-61
2021/06/06 08:18:32;;;;;;;23.33;17.37;;;;;;;;;;5049792;28;20184;-60
2021/06/06 08:21:04;;;;;;;26.80;19.60;;;;;;;;;;5046764;28;20200;-60
2021/06/06 08:23:30;;;;;;;25.27;18.60;;;;;;;;;;5026048;28;20304;-60
2021/06/06 08:25:57;;;;;;;24.43;19.07;;;;;;;;;;5048042;28;20169;-61
2021/06/06 08:28:24;;;;;;;24.30;18.07;;;;;;;;;;5031559;28;20356;-60
2021/06/06 08:30:52;;;;;;;24.23;18.83;;;;;;;;;;5029609;28;20173;-63
2021/06/06 08:33:19;;;;;;;22.33;18.47;;;;;;;;;;5030700;28;20591;-63
2021/06/06 08:35:45;;;;;;;23.30;18.60;;;;;;;;;;5048152;28;20600;-60
2021/06/06 08:38:12;;;;;;;24.27;18.70;;;;;;;;;;5049220;28;20215;-62
2021/06/06 08:40:56;;;;;;;19.63;16.63;;;;;;;;;;5026936;28;20280;-59
2021/06/06 08:43:23;;;;;;;25.80;18.60;;;;;;;;;;5029861;28;20209;-63
2021/06/06 08:45:51;;;;;;;35.23;23.70;;;;;;;;;;5047101;28;20177;-64
2021/06/06 08:48:19;;;;;;;32.67;24.00;;;;;;;;;;5048417;28;20183;-63
2021/06/06 08:50:50;;;;;;;35.53;25.17;;;;;;;;;;5046752;28;20268;-63
2021/06/06 08:53:21;;;;;;;33.17;24.57;;;;;;;;;;5029862;28;20193;-63
2021/06/06 08:55:53;;;;;;;30.93;22.27;;;;;;;;;;5050821;28;20226;-62
2021/06/06 08:58:25;;;;;;;42.00;28.57;;;;;;;;;;5050943;28;20185;-62
2021/06/06 09:00:59;;;;;;;39.80;28.00;;;;;;;;;;5032857;28;20192;-63
2021/06/06 09:03:27;;;;;;;43.53;27.83;;;;;;;;;;5050398;28;20203;-62
2021/06/06 09:06:20;;;;;;;41.70;28.57;;;;;;;;;;5050398;28;20185;-62
2021/06/06 09:08:46;;;;;;;40.60;28.00;;;;;;;;;;5048416;28;20187;-63
2021/06/06 09:11:14;;;;;;;43.63;29.10;;;;;;;;;;5053458;28;20183;-63
2021/06/06 09:13:40;;;;;;;42.17;28.53;;;;;;;;;;5034001;28;20781;-62
2021/06/06 09:16:13;;;;;;;40.27;28.17;;;;;;;;;;5033282;28;20182;-61
2021/06/06 09:18:44;;;;;;;42.93;29.63;;;;;;;;;;5038084;28;20175;-62
2021/06/06 09:21:13;;;;;;;43.33;29.03;;;;;;;;;;5039461;28;20170;-62
2021/06/06 09:23:40;;;;;;;46.57;28.77;;;;;;;;;;5040131;28;20201;-61
2021/06/06 09:26:11;;;;;;;43.00;29.63;;;;;;;;;;5035143;28;20197;-63
2021/06/06 09:28:38;;;;;;;43.30;28.93;;;;;;;;;;5028003;28;20189;-62
2021/06/06 09:31:07;;;;;;;47.50;30.57;;;;;;;;;;5025303;28;20190;-64
2021/06/06 09:33:38;;;;;;;43.37;31.17;;;;;;;;;;5030476;28;20663;-59
2021/06/06 09:36:17;;;;;;;52.67;34.30;;;;;;;;;;5027887;28;20980;-60
2021/06/06 09:38:43;;;;;;;52.50;32.73;;;;;;;;;;5031962;28;20247;-59
2021/06/06 09:41:21;;;;;;;41.93;30.47;;;;;;;;;;5029829;28;20273;-62
2021/06/06 09:44:06;;;;;;;48.77;31.40;;;;;;;;;;5026274;28;20229;-63
2021/06/06 09:46:38;;;;;;;49.77;31.30;;;;;;;;;;5023977;28;20256;-57
2021/06/06 09:49:24;;;;;;;43.13;29.77;;;;;;;;;;5031387;28;20244;-57
2021/06/06 09:51:52;;;;;;;46.40;30.13;;;;;;;;;;5030600;28;20169;-56
2021/06/06 09:54:25;;;;;;;47.50;32.83;;;;;;;;;;5030861;28;20173;-59
2021/06/06 09:56:52;;;;;;;48.17;32.77;;;;;;;;;;5030243;28;20231;-56
2021/06/06 09:59:24;;;;;;;50.13;30.17;;;;;;;;;;5030997;28;20182;-59
2021/06/06 10:01:56;;;;;;;43.40;31.80;;;;;;;;;;5028263;28;20234;-57
2021/06/06 10:04:27;;;;;;;46.77;30.90;;;;;;;;;;5025297;28;20601;-58
2021/06/06 10:07:06;;;;;;;44.83;30.27;;;;;;;;;;5023476;28;20231;-60
2021/06/06 10:09:32;;;;;;;41.53;28.17;;;;;;;;;;5023980;28;20661;-58
2021/06/06 10:12:11;;;;;;;42.00;27.57;;;;;;;;;;5022976;28;20503;-60
2021/06/06 10:14:55;;;;;;;44.67;26.93;;;;;;;;;;5040911;28;20804;-60
2021/06/06 10:17:29;;;;;;;40.40;25.57;;;;;;;;;;5042907;28;20208;-60
2021/06/06 10:20:23;;;;;;;40.90;25.60;;;;;;;;;;5045165;28;20177;-61
2021/06/06 10:23:02;;;;;;;36.37;24.07;;;;;;;;;;5015438;28;20236;-58
2021/06/06 10:25:38;;;;;;;40.80;26.77;;;;;;;;;;5043724;28;20176;-59
2021/06/06 10:28:05;;;;;;;35.03;25.23;;;;;;;;;;5046498;28;20391;-57
2021/06/06 10:30:34;;;;;;;34.53;23.90;;;;;;;;;;5045489;28;20264;-57
2021/06/06 10:33:16;;;;;;;33.60;23.03;;;;;;;;;;5048074;28;20193;-64
2021/06/06 10:35:42;;;;;;;34.90;23.17;;;;;;;;;;5050963;28;20676;-61
2021/06/06 10:38:08;;;;;;;28.30;20.27;;;;;;;;;;5048098;28;20515;-62
2021/06/06 10:40:38;;;;;;;30.73;21.80;;;;;;;;;;5049242;28;20231;-63
2021/06/06 10:43:12;;;;;;;32.40;22.23;;;;;;;;;;5051074;28;20211;-62
2021/06/06 10:46:07;;;;;;;31.07;20.37;;;;;;;;;;5049689;28;20257;-64
2021/06/06 10:48:37;;;;;;;27.50;19.60;;;;;;;;;;4977678;28;20195;-62
2021/06/06 10:51:11;;;;;;;27.87;19.63;;;;;;;;;;5051753;28;20172;-62
2021/06/06 10:53:38;;;;;;;25.77;19.07;;;;;;;;;;5051162;28;20181;-63
2021/06/06 10:56:08;;;;;;;35.70;21.67;;;;;;;;;;5050485;28;20632;-62
2021/06/06 10:58:53;;;;;;;34.37;22.00;;;;;;;;;;5050964;28;20239;-62
2021/06/06 11:01:19;;;;;;;27.80;20.10;;;;;;;;;;5049394;28;20628;-62
2021/06/06 11:03:46;;;;;;;26.20;20.43;;;;;;;;;;5050309;28;20215;-62
2021/06/06 11:06:21;;;;;;;28.77;20.53;;;;;;;;;;5049446;28;20188;-62
2021/06/06 11:08:47;;;;;;;28.13;20.47;;;;;;;;;;5049865;28;20172;-62
2021/06/06 11:11:16;;;;;;;28.17;22.00;;;;;;;;;;5030807;28;20185;-62
2021/06/06 11:13:43;;;;;;;31.13;21.80;;;;;;;;;;5049612;28;20630;-63
2021/06/06 11:16:19;;;;;;;25.20;21.93;;;;;;;;;;5044967;28;20189;-62
2021/06/06 11:18:54;;;;;;;27.43;21.37;;;;;;;;;;5049264;28;20295;-61
2021/06/06 11:21:32;;;;;;;31.60;21.80;;;;;;;;;;5048967;28;20264;-61
2021/06/06 11:24:02;;;;;;;35.83;23.63;;;;;;;;;;5050008;28;20225;-61
2021/06/06 11:26:32;;;;;;;32.33;25.50;;;;;;;;;;5030413;28;20181;-62
2021/06/06 11:29:12;;;;;;;32.33;24.73;;;;;;;;;;5050113;28;20184;-61
2021/06/06 11:31:42;;;;;;;28.27;22.10;;;;;;;;;;5040555;28;20181;-61
2021/06/06 11:34:24;;;;;;;29.17;22.80;;;;;;;;;;5013843;28;20687;-62
2021/06/06 11:37:01;;;;;;;29.87;23.50;;;;;;;;;;5048357;28;20181;-62
2021/06/06 11:39:33;;;;;;;30.97;23.83;;;;;;;;;;5049596;28;20185;-62
2021/06/06 11:42:00;;;;;;;29.83;22.07;;;;;;;;;;5050319;28;20188;-62
2021/06/06 11:44:32;;;;;;;37.03;26.23;;;;;;;;;;5032441;28;20303;-62
2021/06/06 11:47:09;;;;;;;33.22;24.98;;;;;;;;;;5046026;28;20519;-61
2021/06/06 11:49:49;;;;;;;28.53;22.63;;;;;;;;;;5030655;28;20200;-62
2021/06/06 11:52:24;;;;;;;32.25;26.17;;;;;;;;;;5047526;28;20424;-60
2021/06/06 11:54:52;;;;;;;28.17;23.20;;;;;;;;;;5019951;28;20174;-62
2021/06/06 11:57:36;;;;;;;31.60;23.30;;;;;;;;;;5045022;28;20552;-60
2021/06/06 12:00:20;;;;;;;28.30;21.90;;;;;;;;;;5038826;28;20208;-60
2021/06/06 12:02:46;;;;;;;30.93;23.30;;;;;;;;;;5049038;28;20209;-60
2021/06/06 12:05:17;;;;;;;30.40;23.50;;;;;;;;;;5030867;28;20268;-57
2021/06/06 12:07:44;;;;;;;27.23;22.30;;;;;;;;;;5047126;28;20200;-63
2021/06/06 12:10:42;;;;;;;26.20;21.40;;;;;;;;;;5047297;28;20177;-61
2021/06/06 12:13:09;;;;;;;28.53;23.13;;;;;;;;;;5007549;28;20213;-60
2021/06/06 12:15:35;;;;;;;29.07;22.50;;;;;;;;;;5026170;28;20280;-63
2021/06/06 12:18:16;;;;;;;31.20;25.30;;;;;;;;;;5044416;28;20213;-61
2021/06/06 12:21:09;;;;;;;30.23;23.52;;;;;;;;;;5043929;28;20422;-60
2021/06/06 12:23:37;;;;;;;29.40;21.77;;;;;;;;;;5039876;28;20432;-61
2021/06/06 12:26:26;;;;;;;30.63;22.77;;;;;;;;;;5045618;28;20244;-61
2021/06/06 12:28:54;;;;;;;28.43;23.67;;;;;;;;;;5037763;28;20536;-61
2021/06/06 12:31:29;;;;;;;34.37;25.10;;;;;;;;;;5045646;28;20186;-62
2021/06/06 12:33:56;;;;;;;29.03;23.20;;;;;;;;;;5051237;28;20214;-62
2021/06/06 12:36:25;;;;;;;29.80;22.63;;;;;;;;;;5051250;28;20216;-61
2021/06/06 12:38:54;;;;;;;27.30;23.47;;;;;;;;;;5051727;28;20488;-61
2021/06/06 12:41:21;;;;;;;27.87;24.40;;;;;;;;;;5047432;28;20192;-62
2021/06/06 12:43:52;;;;;;;30.67;26.27;;;;;;;;;;5051961;28;20293;-61
2021/06/06 12:46:18;;;;;;;28.10;23.40;;;;;;;;;;5028372;28;20181;-61
2021/06/06 12:49:02;;;;;;;25.83;21.60;;;;;;;;;;5032780;28;20169;-61
2021/06/06 12:51:30;;;;;;;34.53;23.93;;;;;;;;;;5050391;28;20169;-61
2021/06/06 12:54:15;;;;;;;30.00;22.50;;;;;;;;;;5041450;28;20182;-63
2021/06/06 12:56:41;;;;;;;27.23;22.10;;;;;;;;;;5047341;28;20632;-63
2021/06/06 12:59:21;;;;;;;30.30;24.23;;;;;;;;;;5050669;28;20185;-62
2021/06/06 13:01:47;;;;;;;31.43;23.83;;;;;;;;;;5051433;28;20258;-61
2021/06/06 13:04:22;;;;;;;25.60;22.37;;;;;;;;;;5050168;28;20706;-61
2021/06/06 13:06:49;;;;;;;27.23;23.33;;;;;;;;;;5051356;28;20176;-59
2021/06/06 13:09:15;;;;;;;28.10;23.23;;;;;;;;;;5051771;28;20181;-59
2021/06/06 13:11:42;;;;;;;25.63;21.23;;;;;;;;;;5050185;28;20173;-64
2021/06/06 13:14:21;;;;;;;26.40;21.87;;;;;;;;;;5052218;28;20218;-64
2021/06/06 13:16:55;;;;;;;28.63;23.33;;;;;;;;;;5051316;28;20628;-62
2021/06/06 13:19:24;;;;;;;26.83;22.13;;;;;;;;;;5053896;28;20627;-63
2021/06/06 13:22:10;;;;;;;26.87;21.73;;;;;;;;;;5031894;28;20276;-61
2021/06/06 13:24:37;;;;;;;23.27;20.77;;;;;;;;;;5034926;28;20201;-63
2021/06/06 13:27:14;;;;;;;24.70;21.90;;;;;;;;;;5052136;28;20181;-62
2021/06/06 13:29:42;;;;;;;23.27;20.83;;;;;;;;;;5053410;28;20170;-63
2021/06/06 13:32:19;;;;;;;24.30;20.90;;;;;;;;;;5050679;28;20169;-66
2021/06/06 13:34:47;;;;;;;24.73;20.07;;;;;;;;;;5038936;28;20188;-64
2021/06/06 13:37:13;;;;;;;22.40;20.00;;;;;;;;;;5050912;28;20632;-64
2021/06/06 13:39:40;;;;;;;23.67;21.20;;;;;;;;;;5054850;28;20699;-65
2021/06/06 13:42:10;;;;;;;22.87;20.50;;;;;;;;;;5033013;28;20608;-65
2021/06/06 13:44:36;;;;;;;23.63;21.13;;;;;;;;;;5017463;28;20197;-63
2021/06/06 13:47:02;;;;;;;21.90;19.57;;;;;;;;;;5050640;28;20205;-63
2021/06/06 13:49:29;;;;;;;21.73;18.40;;;;;;;;;;5051712;28;20173;-63
2021/06/06 13:51:55;;;;;;;21.27;18.87;;;;;;;;;;5050620;28;20188;-62
2021/06/06 13:54:21;;;;;;;21.00;18.50;;;;;;;;;;5052850;28;20252;-63
2021/06/06 13:56:50;;;;;;;23.17;19.10;;;;;;;;;;5031330;28;20651;-62
2021/06/06 13:59:16;;;;;;;21.33;19.07;;;;;;;;;;5050237;28;20196;-61
2021/06/06 14:01:43;;;;;;;20.83;18.63;;;;;;;;;;5049933;28;20258;-64
2021/06/06 14:04:09;;;;;;;21.07;18.90;;;;;;;;;;5046373;28;20194;-60
2021/06/06 14:06:36;;;;;;;21.07;18.90;;;;;;;;;;5030782;28;20310;-61
2021/06/06 14:09:02;;;;;;;21.73;19.60;;;;;;;;;;5028271;28;20182;-64
2021/06/06 14:11:33;;;;;;;19.20;17.20;;;;;;;;;;5027382;28;20269;-61
2021/06/06 14:13:59;;;;;;;21.47;18.83;;;;;;;;;;5025893;28;20213;-61
2021/06/06 14:16:27;;;;;;;19.83;17.77;;;;;;;;;;5027666;28;20686;-61
2021/06/06 14:18:55;;;;;;;21.93;19.43;;;;;;;;;;5026219;28;20245;-64
2021/06/06 14:21:22;;;;;;;19.87;17.47;;;;;;;;;;5024354;28;20285;-63
2021/06/06 14:23:50;;;;;;;19.83;17.93;;;;;;;;;;5024615;28;20213;-61
2021/06/06 14:26:16;;;;;;;21.43;17.83;;;;;;;;;;5030016;28;20174;-62
2021/06/06 14:28:42;;;;;;;19.13;16.70;;;;;;;;;;5030843;28;20181;-61
2021/06/06 14:31:08;;;;;;;19.83;17.67;;;;;;;;;;5031593;28;20534;-61
2021/06/06 14:33:35;;;;;;;18.63;16.63;;;;;;;;;;5031142;28;20537;-63